KSTC/STC METAR and TAF weather

Enter ICAO airport designator
Station Type Date Time Source
KSTC METAR 2019/08/24 06:53 UTC NOAA

KSTC 240653Z AUTO 13005KT 10SM SCT048 17/14 A3021 RMK AO2 SLP235 T01670139


Station Type Date Time Source
KSTC Decoded METAR 2019/08/24 06:53 UTC NOAA

Station name not available
Aug 24, 2019 - 02:53 AM EDT / 2019.08.24 0653 UTC
Wind: from the SE (130 degrees) at 6 MPH (5 KT):0
Visibility: 10 mile(s):0
Sky conditions: partly cloudy
Temperature: 62.1 F (16.7 C)
Dew Point: 57.0 F (13.9 C)
Relative Humidity: 83%
Pressure (altimeter): 30.21 in. Hg (1023 hPa)
ob: KSTC 240653Z AUTO 13005KT 10SM SCT048 17/14 A3021 RMK AO2 SLP235 T01670139
cycle: 7

Station Type Date Time Source
KSTC TAF 2019/08/24 06:22 UTC NOAA

TAF KSTC 240520Z 2406/2506 11006KT P6SM SCT200
FM241500 16008KT P6SM FEW030 SCT200
FM241700 16010G18KT P6SM FEW030 SCT200
FM242200 15011KT P6SM FEW035 SCT120
FM250300 14007KT P6SM BKN250

Example: see airport list